sensor_id;sensor_type;location;lat;lon;timestamp;P1;durP1;ratioP1;P2;durP2;ratioP2
13660;SDS011;6903;49.480;11.102;2022-11-20T00:02:16;30.73;;;19.87;;
13660;SDS011;6903;49.480;11.102;2022-11-20T00:04:41;29.40;;;19.60;;
13660;SDS011;6903;49.480;11.102;2022-11-20T00:07:06;30.10;;;19.33;;
13660;SDS011;6903;49.480;11.102;2022-11-20T00:09:32;31.00;;;18.93;;
13660;SDS011;6903;49.480;11.102;2022-11-20T00:11:58;31.07;;;18.93;;
13660;SDS011;6903;49.480;11.102;2022-11-20T00:14:24;29.30;;;19.50;;
13660;SDS011;6903;49.480;11.102;2022-11-20T00:16:49;29.07;;;18.67;;
13660;SDS011;6903;49.480;11.102;2022-11-20T00:19:14;32.20;;;20.83;;
13660;SDS011;6903;49.480;11.102;2022-11-20T00:21:40;30.23;;;19.43;;
13660;SDS011;6903;49.480;11.102;2022-11-20T00:24:05;31.20;;;18.73;;
13660;SDS011;6903;49.480;11.102;2022-11-20T00:26:33;31.47;;;19.47;;
13660;SDS011;6903;49.480;11.102;2022-11-20T00:28:59;29.13;;;19.37;;
13660;SDS011;6903;49.480;11.102;2022-11-20T00:31:25;32.27;;;20.83;;
13660;SDS011;6903;49.480;11.102;2022-11-20T00:33:52;31.30;;;19.10;;
13660;SDS011;6903;49.480;11.102;2022-11-20T00:36:18;31.67;;;20.00;;
13660;SDS011;6903;49.480;11.102;2022-11-20T00:38:45;30.50;;;19.30;;
13660;SDS011;6903;49.480;11.102;2022-11-20T00:41:12;28.13;;;19.17;;
13660;SDS011;6903;49.480;11.102;2022-11-20T00:43:39;32.63;;;20.00;;
13660;SDS011;6903;49.480;11.102;2022-11-20T00:46:08;31.30;;;20.43;;
13660;SDS011;6903;49.480;11.102;2022-11-20T00:48:42;31.43;;;20.13;;
13660;SDS011;6903;49.480;11.102;2022-11-20T00:51:08;31.93;;;19.30;;
13660;SDS011;6903;49.480;11.102;2022-11-20T00:53:33;34.33;;;21.63;;
13660;SDS011;6903;49.480;11.102;2022-11-20T00:55:59;32.77;;;21.40;;
13660;SDS011;6903;49.480;11.102;2022-11-20T00:58:30;36.37;;;21.60;;
13660;SDS011;6903;49.480;11.102;2022-11-20T01:01:04;37.00;;;22.57;;
13660;SDS011;6903;49.480;11.102;2022-11-20T01:03:33;36.63;;;22.67;;
13660;SDS011;6903;49.480;11.102;2022-11-20T01:06:04;37.87;;;22.43;;
13660;SDS011;6903;49.480;11.102;2022-11-20T01:08:31;34.17;;;21.60;;
13660;SDS011;6903;49.480;11.102;2022-11-20T01:10:58;38.37;;;22.70;;
13660;SDS011;6903;49.480;11.102;2022-11-20T01:13:25;34.57;;;20.67;;
13660;SDS011;6903;49.480;11.102;2022-11-20T01:16:12;35.67;;;23.20;;
13660;SDS011;6903;49.480;11.102;2022-11-20T01:18:44;42.33;;;27.23;;
13660;SDS011;6903;49.480;11.102;2022-11-20T01:21:11;36.10;;;22.10;;
13660;SDS011;6903;49.480;11.102;2022-11-20T01:23:39;38.20;;;24.00;;
13660;SDS011;6903;49.480;11.102;2022-11-20T01:26:07;31.50;;;20.83;;
13660;SDS011;6903;49.480;11.102;2022-11-20T01:28:34;34.10;;;21.07;;
13660;SDS011;6903;49.480;11.102;2022-11-20T01:31:00;34.20;;;20.80;;
13660;SDS011;6903;49.480;11.102;2022-11-20T01:33:26;37.60;;;22.87;;
13660;SDS011;6903;49.480;11.102;2022-11-20T01:35:52;35.13;;;21.87;;
13660;SDS011;6903;49.480;11.102;2022-11-20T01:38:18;33.17;;;20.77;;
13660;SDS011;6903;49.480;11.102;2022-11-20T01:40:45;37.40;;;22.47;;
13660;SDS011;6903;49.480;11.102;2022-11-20T01:43:14;36.47;;;21.80;;
13660;SDS011;6903;49.480;11.102;2022-11-20T01:51:29;41.40;;;24.53;;
13660;SDS011;6903;49.480;11.102;2022-11-20T01:54:16;43.47;;;24.60;;
13660;SDS011;6903;49.480;11.102;2022-11-20T01:56:48;40.77;;;24.47;;
13660;SDS011;6903;49.480;11.102;2022-11-20T01:59:18;41.27;;;23.53;;
13660;SDS011;6903;49.480;11.102;2022-11-20T02:01:44;41.60;;;24.00;;
13660;SDS011;6903;49.480;11.102;2022-11-20T02:04:10;40.33;;;21.87;;
13660;SDS011;6903;49.480;11.102;2022-11-20T02:06:50;42.17;;;22.93;;
13660;SDS011;6903;49.480;11.102;2022-11-20T02:09:22;37.50;;;22.60;;
13660;SDS011;6903;49.480;11.102;2022-11-20T02:11:48;42.77;;;23.80;;
13660;SDS011;6903;49.480;11.102;2022-11-20T02:14:14;41.30;;;23.83;;
13660;SDS011;6903;49.480;11.102;2022-11-20T02:16:40;40.10;;;23.63;;
13660;SDS011;6903;49.480;11.102;2022-11-20T02:19:13;40.57;;;23.13;;
13660;SDS011;6903;49.480;11.102;2022-11-20T02:24:33;40.73;;;22.80;;
13660;SDS011;6903;49.480;11.102;2022-11-20T02:27:00;42.93;;;23.53;;
13660;SDS011;6903;49.480;11.102;2022-11-20T02:29:44;41.93;;;23.23;;
13660;SDS011;6903;49.480;11.102;2022-11-20T02:32:26;40.40;;;23.80;;
13660;SDS011;6903;49.480;11.102;2022-11-20T02:34:54;42.90;;;24.13;;
13660;SDS011;6903;49.480;11.102;2022-11-20T02:37:19;40.93;;;24.03;;
13660;SDS011;6903;49.480;11.102;2022-11-20T02:39:46;51.43;;;31.03;;
13660;SDS011;6903;49.480;11.102;2022-11-20T02:42:13;45.33;;;25.47;;
13660;SDS011;6903;49.480;11.102;2022-11-20T02:44:39;46.87;;;27.10;;
13660;SDS011;6903;49.480;11.102;2022-11-20T02:47:04;40.83;;;24.30;;
13660;SDS011;6903;49.480;11.102;2022-11-20T02:49:29;50.37;;;28.50;;
13660;SDS011;6903;49.480;11.102;2022-11-20T02:51:55;49.00;;;26.77;;
13660;SDS011;6903;49.480;11.102;2022-11-20T02:54:20;64.07;;;39.33;;
13660;SDS011;6903;49.480;11.102;2022-11-20T02:56:45;61.87;;;38.13;;
13660;SDS011;6903;49.480;11.102;2022-11-20T02:59:11;59.67;;;32.73;;
13660;SDS011;6903;49.480;11.102;2022-11-20T03:01:36;59.07;;;36.07;;
13660;SDS011;6903;49.480;11.102;2022-11-20T03:04:02;44.17;;;25.33;;
13660;SDS011;6903;49.480;11.102;2022-11-20T03:06:27;45.53;;;24.60;;
13660;SDS011;6903;49.480;11.102;2022-11-20T03:08:53;60.17;;;33.33;;
13660;SDS011;6903;49.480;11.102;2022-11-20T03:11:18;49.37;;;28.27;;
13660;SDS011;6903;49.480;11.102;2022-11-20T03:13:43;47.63;;;25.77;;
13660;SDS011;6903;49.480;11.102;2022-11-20T03:16:10;49.00;;;26.27;;
13660;SDS011;6903;49.480;11.102;2022-11-20T03:21:38;41.33;;;23.53;;
13660;SDS011;6903;49.480;11.102;2022-11-20T03:24:03;49.20;;;27.67;;
13660;SDS011;6903;49.480;11.102;2022-11-20T03:26:29;44.07;;;24.33;;
13660;SDS011;6903;49.480;11.102;2022-11-20T03:28:55;43.70;;;24.10;;
13660;SDS011;6903;49.480;11.102;2022-11-20T03:31:23;45.90;;;25.20;;
13660;SDS011;6903;49.480;11.102;2022-11-20T03:33:50;47.47;;;24.47;;
13660;SDS011;6903;49.480;11.102;2022-11-20T03:36:16;50.97;;;27.03;;
13660;SDS011;6903;49.480;11.102;2022-11-20T03:38:43;46.37;;;26.93;;
13660;SDS011;6903;49.480;11.102;2022-11-20T03:41:13;45.67;;;25.37;;
13660;SDS011;6903;49.480;11.102;2022-11-20T03:43:46;42.10;;;24.93;;
13660;SDS011;6903;49.480;11.102;2022-11-20T03:46:13;48.30;;;25.40;;
13660;SDS011;6903;49.480;11.102;2022-11-20T03:48:38;41.53;;;22.60;;
13660;SDS011;6903;49.480;11.102;2022-11-20T03:51:07;46.03;;;24.63;;
13660;SDS011;6903;49.480;11.102;2022-11-20T03:53:41;40.67;;;22.90;;
13660;SDS011;6903;49.480;11.102;2022-11-20T03:56:07;42.63;;;23.33;;
13660;SDS011;6903;49.480;11.102;2022-11-20T03:58:34;42.23;;;21.70;;
13660;SDS011;6903;49.480;11.102;2022-11-20T04:01:12;45.07;;;24.10;;
13660;SDS011;6903;49.480;11.102;2022-11-20T04:03:41;46.17;;;24.13;;
13660;SDS011;6903;49.480;11.102;2022-11-20T04:06:09;46.53;;;24.37;;
13660;SDS011;6903;49.480;11.102;2022-11-20T04:08:39;46.80;;;25.17;;
13660;SDS011;6903;49.480;11.102;2022-11-20T04:11:15;44.97;;;23.30;;
13660;SDS011;6903;49.480;11.102;2022-11-20T04:13:42;41.10;;;22.93;;
13660;SDS011;6903;49.480;11.102;2022-11-20T04:16:11;41.87;;;22.70;;
13660;SDS011;6903;49.480;11.102;2022-11-20T04:18:37;41.50;;;22.33;;
13660;SDS011;6903;49.480;11.102;2022-11-20T04:21:03;41.50;;;22.23;;
13660;SDS011;6903;49.480;11.102;2022-11-20T04:23:29;43.93;;;22.87;;
13660;SDS011;6903;49.480;11.102;2022-11-20T04:26:00;47.60;;;24.03;;
13660;SDS011;6903;49.480;11.102;2022-11-20T04:28:27;46.57;;;24.03;;
13660;SDS011;6903;49.480;11.102;2022-11-20T04:30:52;42.93;;;22.93;;
13660;SDS011;6903;49.480;11.102;2022-11-20T04:33:17;46.93;;;24.57;;
13660;SDS011;6903;49.480;11.102;2022-11-20T04:35:43;47.33;;;24.87;;
13660;SDS011;6903;49.480;11.102;2022-11-20T04:38:12;42.43;;;23.57;;
13660;SDS011;6903;49.480;11.102;2022-11-20T04:40:37;42.27;;;22.90;;
13660;SDS011;6903;49.480;11.102;2022-11-20T04:43:02;49.40;;;24.27;;
13660;SDS011;6903;49.480;11.102;2022-11-20T04:45:28;44.93;;;23.33;;
13660;SDS011;6903;49.480;11.102;2022-11-20T04:47:53;45.83;;;24.17;;
13660;SDS011;6903;49.480;11.102;2022-11-20T04:50:18;45.40;;;24.57;;
13660;SDS011;6903;49.480;11.102;2022-11-20T04:52:44;39.93;;;21.97;;
13660;SDS011;6903;49.480;11.102;2022-11-20T04:55:09;43.30;;;24.10;;
13660;SDS011;6903;49.480;11.102;2022-11-20T04:57:34;41.27;;;23.00;;
13660;SDS011;6903;49.480;11.102;2022-11-20T05:00:00;43.10;;;23.30;;
13660;SDS011;6903;49.480;11.102;2022-11-20T05:02:25;45.47;;;23.43;;
13660;SDS011;6903;49.480;11.102;2022-11-20T05:04:50;46.40;;;25.00;;
13660;SDS011;6903;49.480;11.102;2022-11-20T05:07:16;42.33;;;22.87;;
13660;SDS011;6903;49.480;11.102;2022-11-20T05:09:41;44.83;;;24.00;;
13660;SDS011;6903;49.480;11.102;2022-11-20T05:12:07;46.70;;;23.60;;
13660;SDS011;6903;49.480;11.102;2022-11-20T05:14:33;41.90;;;22.90;;
13660;SDS011;6903;49.480;11.102;2022-11-20T05:16:58;44.90;;;23.80;;
13660;SDS011;6903;49.480;11.102;2022-11-20T05:19:24;46.37;;;23.17;;
13660;SDS011;6903;49.480;11.102;2022-11-20T05:21:49;47.57;;;25.27;;
13660;SDS011;6903;49.480;11.102;2022-11-20T05:24:14;44.60;;;23.87;;
13660;SDS011;6903;49.480;11.102;2022-11-20T05:26:39;45.17;;;22.70;;
13660;SDS011;6903;49.480;11.102;2022-11-20T05:29:05;48.10;;;24.03;;
13660;SDS011;6903;49.480;11.102;2022-11-20T05:31:30;47.33;;;24.10;;
13660;SDS011;6903;49.480;11.102;2022-11-20T05:33:56;48.53;;;23.47;;
13660;SDS011;6903;49.480;11.102;2022-11-20T05:36:21;47.67;;;23.37;;
13660;SDS011;6903;49.480;11.102;2022-11-20T05:38:47;48.07;;;23.93;;
13660;SDS011;6903;49.480;11.102;2022-11-20T05:41:17;46.97;;;24.07;;
13660;SDS011;6903;49.480;11.102;2022-11-20T05:43:44;48.13;;;25.63;;
13660;SDS011;6903;49.480;11.102;2022-11-20T05:46:11;45.93;;;23.57;;
13660;SDS011;6903;49.480;11.102;2022-11-20T05:48:40;50.73;;;24.70;;
13660;SDS011;6903;49.480;11.102;2022-11-20T05:51:07;45.00;;;23.87;;
13660;SDS011;6903;49.480;11.102;2022-11-20T05:53:34;46.67;;;24.40;;
13660;SDS011;6903;49.480;11.102;2022-11-20T05:56:01;49.60;;;25.13;;
13660;SDS011;6903;49.480;11.102;2022-11-20T05:58:28;50.73;;;24.37;;
13660;SDS011;6903;49.480;11.102;2022-11-20T06:00:54;48.60;;;24.47;;
13660;SDS011;6903;49.480;11.102;2022-11-20T06:03:20;50.57;;;24.53;;
13660;SDS011;6903;49.480;11.102;2022-11-20T06:05:45;53.83;;;25.33;;
13660;SDS011;6903;49.480;11.102;2022-11-20T06:08:11;54.90;;;26.03;;
13660;SDS011;6903;49.480;11.102;2022-11-20T06:10:37;51.50;;;23.90;;
13660;SDS011;6903;49.480;11.102;2022-11-20T06:13:02;52.30;;;24.40;;
13660;SDS011;6903;49.480;11.102;2022-11-20T06:15:27;46.00;;;23.93;;
13660;SDS011;6903;49.480;11.102;2022-11-20T06:17:53;49.40;;;23.63;;
13660;SDS011;6903;49.480;11.102;2022-11-20T06:20:19;51.50;;;24.57;;
13660;SDS011;6903;49.480;11.102;2022-11-20T06:22:45;49.87;;;23.37;;
13660;SDS011;6903;49.480;11.102;2022-11-20T06:25:10;52.60;;;23.80;;
13660;SDS011;6903;49.480;11.102;2022-11-20T06:27:36;50.93;;;23.53;;
13660;SDS011;6903;49.480;11.102;2022-11-20T06:30:01;47.97;;;23.50;;
13660;SDS011;6903;49.480;11.102;2022-11-20T06:32:27;51.87;;;24.40;;
13660;SDS011;6903;49.480;11.102;2022-11-20T06:34:52;54.37;;;26.87;;
13660;SDS011;6903;49.480;11.102;2022-11-20T06:37:17;48.73;;;23.40;;
13660;SDS011;6903;49.480;11.102;2022-11-20T06:39:43;51.07;;;24.90;;
13660;SDS011;6903;49.480;11.102;2022-11-20T06:42:08;58.97;;;25.17;;
13660;SDS011;6903;49.480;11.102;2022-11-20T06:44:34;43.77;;;20.97;;
13660;SDS011;6903;49.480;11.102;2022-11-20T06:46:59;47.77;;;23.00;;
13660;SDS011;6903;49.480;11.102;2022-11-20T06:49:25;47.63;;;24.17;;
13660;SDS011;6903;49.480;11.102;2022-11-20T06:51:50;59.67;;;24.90;;
13660;SDS011;6903;49.480;11.102;2022-11-20T06:54:15;46.30;;;22.60;;
13660;SDS011;6903;49.480;11.102;2022-11-20T06:56:41;45.20;;;20.67;;
13660;SDS011;6903;49.480;11.102;2022-11-20T06:59:06;61.90;;;28.27;;
13660;SDS011;6903;49.480;11.102;2022-11-20T07:01:32;51.13;;;25.27;;
13660;SDS011;6903;49.480;11.102;2022-11-20T07:03:57;58.23;;;25.63;;
13660;SDS011;6903;49.480;11.102;2022-11-20T07:06:23;52.40;;;23.33;;
13660;SDS011;6903;49.480;11.102;2022-11-20T07:08:50;54.30;;;25.63;;
13660;SDS011;6903;49.480;11.102;2022-11-20T07:11:17;59.77;;;25.27;;
13660;SDS011;6903;49.480;11.102;2022-11-20T07:13:42;48.43;;;23.30;;
13660;SDS011;6903;49.480;11.102;2022-11-20T07:16:08;51.97;;;24.10;;
13660;SDS011;6903;49.480;11.102;2022-11-20T07:18:34;45.93;;;21.87;;
13660;SDS011;6903;49.480;11.102;2022-11-20T07:21:00;52.27;;;24.73;;
13660;SDS011;6903;49.480;11.102;2022-11-20T07:23:26;40.13;;;20.73;;
13660;SDS011;6903;49.480;11.102;2022-11-20T07:25:52;46.83;;;21.83;;
13660;SDS011;6903;49.480;11.102;2022-11-20T07:28:17;66.13;;;37.20;;
13660;SDS011;6903;49.480;11.102;2022-11-20T07:30:42;55.13;;;30.67;;
13660;SDS011;6903;49.480;11.102;2022-11-20T07:33:08;55.47;;;29.33;;
13660;SDS011;6903;49.480;11.102;2022-11-20T07:35:33;46.90;;;21.50;;
13660;SDS011;6903;49.480;11.102;2022-11-20T07:37:58;50.73;;;22.00;;
13660;SDS011;6903;49.480;11.102;2022-11-20T07:40:24;53.33;;;25.30;;
13660;SDS011;6903;49.480;11.102;2022-11-20T07:42:52;63.03;;;26.30;;
13660;SDS011;6903;49.480;11.102;2022-11-20T07:45:20;94.90;;;65.70;;
13660;SDS011;6903;49.480;11.102;2022-11-20T07:47:47;56.17;;;30.80;;
13660;SDS011;6903;49.480;11.102;2022-11-20T07:50:12;69.83;;;27.43;;
13660;SDS011;6903;49.480;11.102;2022-11-20T07:52:38;51.30;;;25.13;;
13660;SDS011;6903;49.480;11.102;2022-11-20T07:55:04;55.73;;;25.80;;
13660;SDS011;6903;49.480;11.102;2022-11-20T07:57:30;105.87;;;31.67;;
13660;SDS011;6903;49.480;11.102;2022-11-20T07:59:55;62.47;;;25.87;;
13660;SDS011;6903;49.480;11.102;2022-11-20T08:02:20;52.77;;;26.57;;
13660;SDS011;6903;49.480;11.102;2022-11-20T08:04:46;52.77;;;22.67;;
13660;SDS011;6903;49.480;11.102;2022-11-20T08:07:11;44.90;;;25.93;;
13660;SDS011;6903;49.480;11.102;2022-11-20T08:09:36;43.97;;;22.07;;
13660;SDS011;6903;49.480;11.102;2022-11-20T08:12:02;42.93;;;22.10;;
13660;SDS011;6903;49.480;11.102;2022-11-20T08:14:46;46.43;;;24.43;;
13660;SDS011;6903;49.480;11.102;2022-11-20T08:17:11;113.33;;;40.53;;
13660;SDS011;6903;49.480;11.102;2022-11-20T08:19:37;42.97;;;22.47;;
13660;SDS011;6903;49.480;11.102;2022-11-20T08:22:02;43.20;;;23.10;;
13660;SDS011;6903;49.480;11.102;2022-11-20T08:24:28;41.30;;;21.63;;
13660;SDS011;6903;49.480;11.102;2022-11-20T08:26:53;39.43;;;20.50;;
13660;SDS011;6903;49.480;11.102;2022-11-20T08:29:18;53.43;;;21.87;;
13660;SDS011;6903;49.480;11.102;2022-11-20T08:31:44;39.27;;;22.60;;
13660;SDS011;6903;49.480;11.102;2022-11-20T08:34:10;42.27;;;21.47;;
13660;SDS011;6903;49.480;11.102;2022-11-20T08:36:35;43.53;;;21.80;;
13660;SDS011;6903;49.480;11.102;2022-11-20T08:39:01;40.87;;;20.23;;
13660;SDS011;6903;49.480;11.102;2022-11-20T08:41:28;39.83;;;21.63;;
13660;SDS011;6903;49.480;11.102;2022-11-20T08:43:59;40.40;;;20.43;;
13660;SDS011;6903;49.480;11.102;2022-11-20T08:46:27;35.80;;;19.40;;
13660;SDS011;6903;49.480;11.102;2022-11-20T08:48:57;31.53;;;19.00;;
13660;SDS011;6903;49.480;11.102;2022-11-20T08:51:23;38.20;;;21.63;;
13660;SDS011;6903;49.480;11.102;2022-11-20T08:53:48;36.27;;;20.33;;
13660;SDS011;6903;49.480;11.102;2022-11-20T08:56:14;28.70;;;18.00;;
13660;SDS011;6903;49.480;11.102;2022-11-20T08:58:39;35.87;;;19.80;;
13660;SDS011;6903;49.480;11.102;2022-11-20T09:01:05;38.90;;;19.30;;
13660;SDS011;6903;49.480;11.102;2022-11-20T09:03:31;36.03;;;20.03;;
13660;SDS011;6903;49.480;11.102;2022-11-20T09:05:57;35.10;;;19.07;;
13660;SDS011;6903;49.480;11.102;2022-11-20T09:08:24;33.60;;;17.90;;
13660;SDS011;6903;49.480;11.102;2022-11-20T09:10:52;33.77;;;19.50;;
13660;SDS011;6903;49.480;11.102;2022-11-20T09:13:19;32.27;;;18.57;;
13660;SDS011;6903;49.480;11.102;2022-11-20T09:15:45;35.97;;;19.40;;
13660;SDS011;6903;49.480;11.102;2022-11-20T09:18:10;33.77;;;19.43;;
13660;SDS011;6903;49.480;11.102;2022-11-20T09:20:36;35.47;;;19.97;;
13660;SDS011;6903;49.480;11.102;2022-11-20T09:23:01;32.33;;;18.77;;
13660;SDS011;6903;49.480;11.102;2022-11-20T09:25:27;30.37;;;18.53;;
13660;SDS011;6903;49.480;11.102;2022-11-20T09:27:56;29.73;;;18.37;;
13660;SDS011;6903;49.480;11.102;2022-11-20T09:30:24;31.23;;;17.83;;
13660;SDS011;6903;49.480;11.102;2022-11-20T09:32:50;29.63;;;19.53;;
13660;SDS011;6903;49.480;11.102;2022-11-20T09:35:15;38.77;;;20.03;;
13660;SDS011;6903;49.480;11.102;2022-11-20T09:37:40;34.00;;;19.00;;
13660;SDS011;6903;49.480;11.102;2022-11-20T09:40:06;32.93;;;19.10;;
13660;SDS011;6903;49.480;11.102;2022-11-20T09:50:58;31.90;;;17.53;;
13660;SDS011;6903;49.480;11.102;2022-11-20T09:53:30;32.37;;;17.40;;
13660;SDS011;6903;49.480;11.102;2022-11-20T09:56:19;33.27;;;16.80;;
13660;SDS011;6903;49.480;11.102;2022-11-20T09:58:47;30.20;;;16.90;;
13660;SDS011;6903;49.480;11.102;2022-11-20T10:01:16;27.37;;;16.10;;
13660;SDS011;6903;49.480;11.102;2022-11-20T10:06:55;36.33;;;21.77;;
13660;SDS011;6903;49.480;11.102;2022-11-20T10:09:32;31.07;;;20.03;;
13660;SDS011;6903;49.480;11.102;2022-11-20T10:14:54;44.23;;;27.80;;
13660;SDS011;6903;49.480;11.102;2022-11-20T10:17:34;35.80;;;21.00;;
13660;SDS011;6903;49.480;11.102;2022-11-20T10:20:22;30.10;;;21.20;;
13660;SDS011;6903;49.480;11.102;2022-11-20T10:26:01;74.40;;;25.60;;
13660;SDS011;6903;49.480;11.102;2022-11-20T10:28:43;35.63;;;22.87;;
13660;SDS011;6903;49.480;11.102;2022-11-20T10:31:25;35.40;;;23.70;;
13660;SDS011;6903;49.480;11.102;2022-11-20T10:33:55;31.20;;;22.87;;
13660;SDS011;6903;49.480;11.102;2022-11-20T10:36:25;29.87;;;19.70;;
13660;SDS011;6903;49.480;11.102;2022-11-20T10:42:18;33.13;;;20.70;;
13660;SDS011;6903;49.480;11.102;2022-11-20T10:44:58;35.73;;;23.43;;
13660;SDS011;6903;49.480;11.102;2022-11-20T10:47:38;30.97;;;21.90;;
13660;SDS011;6903;49.480;11.102;2022-11-20T10:50:04;30.87;;;21.73;;
13660;SDS011;6903;49.480;11.102;2022-11-20T10:55:39;33.60;;;23.80;;
13660;SDS011;6903;49.480;11.102;2022-11-20T10:58:14;33.53;;;21.37;;
13660;SDS011;6903;49.480;11.102;2022-11-20T11:00:50;38.00;;;24.87;;
13660;SDS011;6903;49.480;11.102;2022-11-20T11:03:28;41.63;;;28.20;;
13660;SDS011;6903;49.480;11.102;2022-11-20T11:08:47;44.30;;;32.67;;
13660;SDS011;6903;49.480;11.102;2022-11-20T11:11:26;41.53;;;20.87;;
13660;SDS011;6903;49.480;11.102;2022-11-20T11:14:04;54.03;;;30.40;;
13660;SDS011;6903;49.480;11.102;2022-11-20T11:16:30;41.27;;;28.47;;
13660;SDS011;6903;49.480;11.102;2022-11-20T11:19:06;38.60;;;22.43;;
13660;SDS011;6903;49.480;11.102;2022-11-20T11:21:36;36.00;;;22.20;;
13660;SDS011;6903;49.480;11.102;2022-11-20T11:24:14;31.73;;;20.07;;
13660;SDS011;6903;49.480;11.102;2022-11-20T11:29:35;23.10;;;13.13;;
13660;SDS011;6903;49.480;11.102;2022-11-20T11:34:29;22.40;;;13.67;;
13660;SDS011;6903;49.480;11.102;2022-11-20T11:36:56;32.93;;;14.77;;
13660;SDS011;6903;49.480;11.102;2022-11-20T11:39:23;19.37;;;13.13;;
13660;SDS011;6903;49.480;11.102;2022-11-20T11:41:50;20.70;;;13.53;;
13660;SDS011;6903;49.480;11.102;2022-11-20T11:44:20;17.90;;;11.97;;
13660;SDS011;6903;49.480;11.102;2022-11-20T11:47:26;21.03;;;12.20;;
13660;SDS011;6903;49.480;11.102;2022-11-20T11:50:00;16.80;;;10.33;;
13660;SDS011;6903;49.480;11.102;2022-11-20T11:52:27;13.73;;;9.73;;
13660;SDS011;6903;49.480;11.102;2022-11-20T11:54:55;16.23;;;9.70;;
13660;SDS011;6903;49.480;11.102;2022-11-20T12:00:05;13.43;;;8.30;;
13660;SDS011;6903;49.480;11.102;2022-11-20T12:07:59;13.20;;;8.23;;
13660;SDS011;6903;49.480;11.102;2022-11-20T12:16:19;14.03;;;9.30;;
13660;SDS011;6903;49.480;11.102;2022-11-20T12:18:46;11.50;;;7.80;;
13660;SDS011;6903;49.480;11.102;2022-11-20T12:29:11;11.70;;;9.07;;
13660;SDS011;6903;49.480;11.102;2022-11-20T12:31:51;10.87;;;8.60;;
13660;SDS011;6903;49.480;11.102;2022-11-20T12:34:41;13.00;;;8.80;;
13660;SDS011;6903;49.480;11.102;2022-11-20T12:37:19;14.77;;;9.97;;
13660;SDS011;6903;49.480;11.102;2022-11-20T12:46:25;14.53;;;9.77;;
13660;SDS011;6903;49.480;11.102;2022-11-20T12:54:40;12.00;;;9.43;;
13660;SDS011;6903;49.480;11.102;2022-11-20T13:00:00;11.50;;;9.03;;
13660;SDS011;6903;49.480;11.102;2022-11-20T13:03:05;12.43;;;8.77;;
13660;SDS011;6903;49.480;11.102;2022-11-20T13:08:36;13.13;;;9.67;;
13660;SDS011;6903;49.480;11.102;2022-11-20T13:13:43;12.47;;;9.50;;
13660;SDS011;6903;49.480;11.102;2022-11-20T13:19:04;12.93;;;9.53;;
13660;SDS011;6903;49.480;11.102;2022-11-20T13:21:35;14.03;;;9.97;;
13660;SDS011;6903;49.480;11.102;2022-11-20T13:24:34;13.23;;;9.73;;
13660;SDS011;6903;49.480;11.102;2022-11-20T13:29:33;13.90;;;9.97;;
13660;SDS011;6903;49.480;11.102;2022-11-20T13:32:17;14.23;;;10.23;;
13660;SDS011;6903;49.480;11.102;2022-11-20T13:34:52;12.27;;;9.83;;
13660;SDS011;6903;49.480;11.102;2022-11-20T13:37:38;15.53;;;10.83;;
13660;SDS011;6903;49.480;11.102;2022-11-20T13:42:33;14.20;;;11.23;;
13660;SDS011;6903;49.480;11.102;2022-11-20T13:45:08;15.03;;;10.97;;
13660;SDS011;6903;49.480;11.102;2022-11-20T13:47:35;13.90;;;10.73;;
13660;SDS011;6903;49.480;11.102;2022-11-20T13:50:02;15.53;;;12.07;;
13660;SDS011;6903;49.480;11.102;2022-11-20T13:57:59;14.30;;;11.00;;
13660;SDS011;6903;49.480;11.102;2022-11-20T14:00:43;15.47;;;10.83;;
13660;SDS011;6903;49.480;11.102;2022-11-20T14:03:20;15.77;;;11.80;;
13660;SDS011;6903;49.480;11.102;2022-11-20T14:05:50;12.40;;;10.57;;
13660;SDS011;6903;49.480;11.102;2022-11-20T14:08:23;13.90;;;10.60;;
13660;SDS011;6903;49.480;11.102;2022-11-20T14:11:01;15.40;;;11.47;;
13660;SDS011;6903;49.480;11.102;2022-11-20T14:13:28;16.30;;;12.00;;
13660;SDS011;6903;49.480;11.102;2022-11-20T14:15:56;16.17;;;11.70;;
13660;SDS011;6903;49.480;11.102;2022-11-20T14:18:22;16.67;;;12.43;;
13660;SDS011;6903;49.480;11.102;2022-11-20T14:20:47;17.63;;;12.20;;
13660;SDS011;6903;49.480;11.102;2022-11-20T14:23:22;19.67;;;12.90;;
13660;SDS011;6903;49.480;11.102;2022-11-20T14:25:49;15.60;;;12.17;;
13660;SDS011;6903;49.480;11.102;2022-11-20T14:28:20;15.77;;;11.93;;
13660;SDS011;6903;49.480;11.102;2022-11-20T14:30:50;17.13;;;12.40;;
13660;SDS011;6903;49.480;11.102;2022-11-20T14:33:16;17.40;;;12.87;;
13660;SDS011;6903;49.480;11.102;2022-11-20T14:35:45;17.23;;;12.30;;
13660;SDS011;6903;49.480;11.102;2022-11-20T14:38:13;17.00;;;12.87;;
13660;SDS011;6903;49.480;11.102;2022-11-20T14:40:41;15.77;;;12.23;;
13660;SDS011;6903;49.480;11.102;2022-11-20T14:46:00;19.93;;;13.33;;
13660;SDS011;6903;49.480;11.102;2022-11-20T14:51:11;18.47;;;13.47;;
13660;SDS011;6903;49.480;11.102;2022-11-20T14:53:47;17.13;;;12.83;;
13660;SDS011;6903;49.480;11.102;2022-11-20T14:56:13;19.70;;;13.40;;
13660;SDS011;6903;49.480;11.102;2022-11-20T14:58:54;21.27;;;13.33;;
13660;SDS011;6903;49.480;11.102;2022-11-20T15:01:25;16.90;;;12.67;;
13660;SDS011;6903;49.480;11.102;2022-11-20T15:06:34;18.20;;;13.03;;
13660;SDS011;6903;49.480;11.102;2022-11-20T15:08:59;18.73;;;13.27;;
13660;SDS011;6903;49.480;11.102;2022-11-20T15:11:27;16.67;;;12.57;;
13660;SDS011;6903;49.480;11.102;2022-11-20T15:13:55;18.83;;;13.93;;
13660;SDS011;6903;49.480;11.102;2022-11-20T15:16:21;16.60;;;12.80;;
13660;SDS011;6903;49.480;11.102;2022-11-20T15:18:49;18.80;;;13.17;;
13660;SDS011;6903;49.480;11.102;2022-11-20T15:21:15;18.07;;;12.27;;
13660;SDS011;6903;49.480;11.102;2022-11-20T15:23:42;19.90;;;13.73;;
13660;SDS011;6903;49.480;11.102;2022-11-20T15:26:08;19.03;;;14.13;;
13660;SDS011;6903;49.480;11.102;2022-11-20T15:28:42;20.40;;;14.10;;
13660;SDS011;6903;49.480;11.102;2022-11-20T15:31:12;18.30;;;13.10;;
13660;SDS011;6903;49.480;11.102;2022-11-20T15:33:39;17.63;;;13.30;;
13660;SDS011;6903;49.480;11.102;2022-11-20T15:36:04;20.23;;;13.17;;
13660;SDS011;6903;49.480;11.102;2022-11-20T15:38:30;17.60;;;12.87;;
13660;SDS011;6903;49.480;11.102;2022-11-20T15:40:55;20.10;;;13.70;;
13660;SDS011;6903;49.480;11.102;2022-11-20T15:43:21;20.63;;;13.10;;
13660;SDS011;6903;49.480;11.102;2022-11-20T15:45:56;20.20;;;13.80;;
13660;SDS011;6903;49.480;11.102;2022-11-20T15:53:56;19.70;;;13.50;;
13660;SDS011;6903;49.480;11.102;2022-11-20T15:56:22;23.47;;;14.53;;
13660;SDS011;6903;49.480;11.102;2022-11-20T15:58:48;19.77;;;13.90;;
13660;SDS011;6903;49.480;11.102;2022-11-20T16:01:14;18.30;;;12.70;;
13660;SDS011;6903;49.480;11.102;2022-11-20T16:03:41;21.70;;;15.10;;
13660;SDS011;6903;49.480;11.102;2022-11-20T16:06:07;21.20;;;15.50;;
13660;SDS011;6903;49.480;11.102;2022-11-20T16:08:32;23.90;;;16.30;;
13660;SDS011;6903;49.480;11.102;2022-11-20T16:10:58;22.80;;;15.87;;
13660;SDS011;6903;49.480;11.102;2022-11-20T16:13:24;20.57;;;14.80;;
13660;SDS011;6903;49.480;11.102;2022-11-20T16:16:11;21.97;;;16.57;;
13660;SDS011;6903;49.480;11.102;2022-11-20T16:18:44;30.97;;;21.27;;
13660;SDS011;6903;49.480;11.102;2022-11-20T16:21:12;38.47;;;27.90;;
13660;SDS011;6903;49.480;11.102;2022-11-20T16:23:38;41.70;;;31.00;;
13660;SDS011;6903;49.480;11.102;2022-11-20T16:26:14;44.83;;;31.93;;